Nearby METAR Reports

 

KORH - Worcester, Massachusetts, USA
Distance from station: NW 4mi, 7km
Updated: Fri, 17-Aug-2018 2:54am EDT
Few Clouds
Few Clouds
 Wind from NNE
Wind: NNE 6 mph , 9 km/h
Temperature: 72°F , 22°C
Dew Point: 61°F , 16°C
Humidity: 69%
Barometer: 30.12 inHg , 1020 hPa
Clouds: Few Clouds
Visibility: 10 miles , 16 km
Cloud details: Few Clouds 4100 ft
2018/08/17 06:54 KORH 170654Z AUTO 02005KT 10SM FEW041 22/16 A3012 RMK AO2 SLP192 T02170161
KBOS - Boston, Massachusetts, USA
Distance from station: ENE 42mi, 68km
Updated: Fri, 17-Aug-2018 2:54am EDT
Few Clouds
Few Clouds
 Wind from NNE
Wind: NNE 5 mph , 7 km/h
Temperature: 72°F , 22°C
Dew Point: 63°F , 17°C
Humidity: 73%
Barometer: 30.08 inHg , 1018.6 hPa
Clouds: Few Clouds
Visibility: 10 miles , 16 km
Cloud details: Few Clouds 4300 ft
2018/08/17 06:54 KBOS 170654Z 02004KT 10SM FEW043 22/17 A3008 RMK AO2 SLP187 T02220167
 
KCQX - Chatham, Massachusetts, USA
Distance from station: SE 102mi, 164km
Updated: Fri, 17-Aug-2018 2:52am EDT
Clear
Clear
 Wind from NNW
Wind: NNW 3 mph , 6 km/h
Temperature: 72°F , 22°C
Dew Point: 68°F , 20°C
Humidity: 88%
Barometer: 30.08 inHg , 1018.6 hPa
Clouds: Clear
Visibility: 8 miles , 13 km
2018/08/17 06:52 KCQX 170652Z AUTO 33003KT 8SM CLR 22/20 A3008 RMK AO2 SLP186 T02170200
KMVY - Marthas Vineyard, Massachusetts, USA
Distance from station: SE 84mi, 135km
Updated: Fri, 17-Aug-2018 2:53am EDT
Mist, Clear
Mist, Clear
 Wind from calm
Wind: Calm
Temperature: 70°F , 21°C
Dew Point: 68°F , 20°C
Humidity: 94%
Barometer: 30.07 inHg , 1018.3 hPa
Summary: Mist
Clouds: Clear
Visibility: 6 miles , 10 km
2018/08/17 06:53 KMVY 170653Z AUTO 00000KT 6SM BR CLR 21/20 A3007 RMK AO2 SLP182 T02060200
 
KPVC - Provincetown, Massachusetts, USA
Distance from station: NNW 85mi, 136km
Updated: Fri, 17-Aug-2018 2:56am EDT
Few Clouds
Few Clouds
 Wind from calm
Wind: Calm
Temperature: 64°F , 18°C
Dew Point: 63°F , 17°C
Humidity: 94%
Barometer: 30.08 inHg , 1018.6 hPa
Clouds: Few Clouds
Visibility: 10 miles , 16 km
Cloud details: Few Clouds 4600 ft
2018/08/17 06:56 KPVC 170656Z AUTO 00000KT 10SM FEW046 18/17 A3008 RMK AO2 SLP185 T01830172
KAQW - Savoy, Massachusetts, USA
Distance from station: NNW 66mi, 106km
Updated: Fri, 17-Aug-2018 2:52am EDT
Mist, Clear
Mist, Clear
 Wind from calm
Wind: Calm
Temperature: 63°F , 17°C
Dew Point: 63°F , 17°C
Humidity: 100%
Barometer: 30.10 inHg , 1019.3 hPa
Summary: Mist
Clouds: Clear
Visibility: 3 miles , 5 km
2018/08/17 06:52 KAQW 170652Z AUTO 00000KT 3SM BR CLR 17/17 A3010 RMK AO2 SLP191 T01720167
 
KIZG - Fryeburg, Maine, USA
Distance from station: NNE 133mi, 214km
Updated: Fri, 17-Aug-2018 3:27am EDT
Mist, Clear
Mist, Clear
 Wind from calm
Wind: Calm
Temperature: 50°F , 10°C
Dew Point: 50°F , 10°C
Humidity: 100%
Barometer: 30.13 inHg , 1020.3 hPa
Summary: Mist
Clouds: Clear
Visibility: 1 1/2 miles , 2.4 km
2018/08/17 07:27 KIZG 170727Z AUTO 00000KT 1 1/2SM BR CLR 10/10 A3013 RMK AO2 T01000100
KMWN - Mt Washington, New Hampshire, USA
Distance from station: NNE 146mi, 234km
Updated: Fri, 17-Aug-2018 2:53am EDT
Few Clouds
Few Clouds
 Wind from WNW
Wind: WNW 36 mph , 57 km/h
Temperature: 54°F , 12°C
Dew Point: 5°F , -15°C
Humidity: 14%
Clouds: Few Clouds
Visibility: 70 miles , 112 km
Cloud details: Few Clouds 15000 ft
Few Clouds 17000 ft
Few Clouds 18000 ft
2018/08/17 06:53 KMWN 170653Z 30031KT 70SM FEW150 FEW170 FEW180 12/M15 RMK
 
KBML - Berlin, New Hampshire, USA
Distance from station: NNE 160mi, 257km
Updated: Fri, 17-Aug-2018 2:52am EDT
Fog, Overcast
Fog, Overcast
 Wind from calm
Wind: Calm
Temperature: 50°F , 10°C
Dew Point: 50°F , 10°C
Humidity: 100%
Barometer: 30.14 inHg , 1020.7 hPa
Summary: Fog
Clouds: Overcast
Visibility: 1/4 mile , 0.4 km
Cloud details: Overcast 100 ft
2018/08/17 06:52 KBML 170652Z AUTO 00000KT 1/4SM FG VV001 10/10 A3014 RMK AO2 SLP204 T01000100